Time;durP1;ratioP1;P1;durP2;ratioP2;P2;SDS_P1;SDS_P2;PMS_P1;PMS_P2;Temp;Humidity;BMP_temperature;BMP_pressure;BME280_temperature;BME280_humidity;BME280_pressure;Samples;Min_cycle;Max_cycle;Signal;HPM_P1;HPM_P2
2021/03/09 00:00:10;;;;;;;38.88;25.42;;;;;;;4.83;47.31;101528.66;350981;28;1121;-72
2021/03/09 00:00:21;;;;;;;39.13;24.95;;;;;;;4.83;47.63;101528.66;347145;28;71923;-71
2021/03/09 00:00:32;;;;;;;39.10;25.40;;;;;;;4.84;47.97;101526.03;350720;28;1959;-72
2021/03/09 00:00:43;;;;;;;39.05;25.80;;;;;;;4.83;47.92;101516.44;352286;28;1110;-72
2021/03/09 00:00:55;;;;;;;38.70;25.75;;;;;;;4.84;48.08;101530.41;353035;27;1422;-72
2021/03/09 00:01:06;;;;;;;36.83;25.17;;;;;;;4.85;47.99;101524.28;353030;27;1238;-69
2021/03/09 00:01:17;;;;;;;37.10;25.38;;;;;;;4.83;47.93;101526.06;350947;28;1425;-72
2021/03/09 00:01:28;;;;;;;38.22;25.35;;;;;;;4.85;48.59;101521.66;350872;28;1500;-71
2021/03/09 00:01:40;;;;;;;38.03;25.23;;;;;;;4.86;48.60;101533.88;352326;28;1180;-70
2021/03/09 00:01:51;;;;;;;38.80;25.45;;;;;;;4.85;47.54;101527.78;351741;28;1429;-72
2021/03/09 00:02:03;;;;;;;40.15;25.88;;;;;;;4.79;48.57;101522.59;350947;28;1119;-72
2021/03/09 00:02:14;;;;;;;41.92;25.65;;;;;;;4.77;48.68;101529.59;351746;28;1520;-72
2021/03/09 00:02:25;;;;;;;42.33;26.30;;;;;;;4.76;47.76;101522.63;350758;28;1106;-72
2021/03/09 00:02:37;;;;;;;41.92;26.40;;;;;;;4.68;48.43;101524.44;350854;28;1488;-71
2021/03/09 00:02:48;;;;;;;41.20;25.05;;;;;;;4.54;47.88;101524.59;350825;28;1453;-72
2021/03/09 00:03:00;;;;;;;42.50;25.27;;;;;;;4.50;48.43;101528.97;349620;28;1065;-72
2021/03/09 00:03:11;;;;;;;43.42;26.95;;;;;;;4.57;48.93;101524.56;350010;28;1453;-72
2021/03/09 00:03:22;;;;;;;41.35;27.40;;;;;;;4.64;48.28;101520.13;350802;28;1091;-72
2021/03/09 00:03:34;;;;;;;39.58;26.55;;;;;;;4.69;48.37;101518.34;350917;28;1469;-71
2021/03/09 00:03:45;;;;;;;39.75;26.70;;;;;;;4.65;48.30;101514.88;350973;28;1076;-71
2021/03/09 00:03:56;;;;;;;40.78;26.95;;;;;;;4.66;48.71;101526.22;350775;28;1735;-72
2021/03/09 00:04:07;;;;;;;42.15;27.00;;;;;;;4.68;48.42;101521.84;350916;28;1124;-71
2021/03/09 00:04:18;;;;;;;42.17;26.70;;;;;;;4.67;48.27;101520.97;350813;28;1146;-72
2021/03/09 00:04:29;;;;;;;42.08;26.63;;;;;;;4.67;48.22;101522.72;351108;28;2108;-72
2021/03/09 00:04:40;;;;;;;41.72;27.08;;;;;;;4.70;48.28;101523.56;352499;28;1110;-71
2021/03/09 00:04:52;;;;;;;42.20;27.68;;;;;;;4.73;48.27;101517.44;351753;28;1453;-68
2021/03/09 00:05:03;;;;;;;42.63;28.20;;;;;;;4.74;48.87;101521.78;350938;28;1140;-72
2021/03/09 00:05:14;;;;;;;44.75;28.23;;;;;;;4.76;48.66;101520.00;351717;28;1409;-71
2021/03/09 00:05:26;;;;;;;44.03;28.00;;;;;;;4.73;48.47;101518.28;352252;28;1092;-73
2021/03/09 00:05:37;;;;;;;42.40;27.88;;;;;;;4.73;48.73;101520.91;350986;28;1460;-71
2021/03/09 00:05:48;;;;;;;40.65;27.70;;;;;;;4.72;47.98;101516.53;350955;28;1045;-72
2021/03/09 00:05:59;;;;;;;42.26;27.54;;;;;;;4.72;48.41;101526.16;352339;28;1158;-71
2021/03/09 00:06:10;;;;;;;43.92;27.85;;;;;;;4.71;48.08;101524.41;351843;28;1433;-72
2021/03/09 00:06:21;;;;;;;42.38;27.35;;;;;;;4.66;47.85;101532.31;349548;28;1099;-72
2021/03/09 00:06:32;;;;;;;41.30;27.20;;;;;;;4.62;48.01;101524.53;350046;28;1520;-72
2021/03/09 00:06:43;;;;;;;41.15;26.92;;;;;;;4.60;48.34;101527.13;350978;28;1062;-72
2021/03/09 00:06:54;;;;;;;41.35;27.27;;;;;;;4.57;49.43;101521.94;351389;28;1995;-71
2021/03/09 00:07:05;;;;;;;42.68;27.80;;;;;;;4.48;49.39;101524.63;350840;28;1179;-71
2021/03/09 00:07:17;;;;;;;44.10;28.63;;;;;;;4.44;48.70;101521.19;351891;28;1990;-72
2021/03/09 00:07:28;;;;;;;44.90;29.23;;;;;;;4.51;49.75;101528.09;352313;28;1129;-71
2021/03/09 00:07:42;;;;;;;44.52;29.14;;;;;;;4.58;48.92;101524.53;352343;28;1151;-72
2021/03/09 00:07:53;;;;;;;44.13;28.63;;;;;;;4.63;48.43;101515.78;351468;28;24206;-72
2021/03/09 00:08:04;;;;;;;44.45;29.00;;;;;;;4.65;48.26;101514.88;352181;28;2042;-71
2021/03/09 00:08:15;;;;;;;46.63;29.23;;;;;;;4.68;49.39;101522.69;351305;28;1516;-71
2021/03/09 00:08:26;;;;;;;48.36;28.92;;;;;;;4.58;48.56;101521.06;350929;28;1169;-70
2021/03/09 00:08:38;;;;;;;46.35;27.95;;;;;;;4.45;48.85;101524.66;352388;28;1337;-72
2021/03/09 00:08:49;;;;;;;44.53;27.90;;;;;;;4.34;49.16;101520.41;352243;28;1432;-71
2021/03/09 00:09:00;;;;;;;45.40;29.55;;;;;;;4.37;49.47;101520.38;350756;28;1299;-73
2021/03/09 00:09:11;;;;;;;47.83;30.67;;;;;;;4.43;49.30;101519.47;351260;28;1425;-71
2021/03/09 00:09:23;;;;;;;48.47;30.63;;;;;;;4.44;49.69;101523.81;352325;28;1330;-72
2021/03/09 00:09:34;;;;;;;46.75;30.45;;;;;;;4.46;49.14;101527.25;352273;28;1452;-72
2021/03/09 00:09:45;;;;;;;47.85;30.38;;;;;;;4.40;49.55;101520.34;352370;28;1163;-71
2021/03/09 00:09:56;;;;;;;47.22;29.30;;;;;;;4.24;50.11;101527.47;351047;28;1642;-72
2021/03/09 00:10:08;;;;;;;47.28;29.23;;;;;;;4.18;50.49;101526.66;350911;28;1089;-70
2021/03/09 00:10:20;;;;;;;46.90;29.63;;;;;;;4.13;49.98;101525.81;350805;28;1319;-71
2021/03/09 00:10:31;;;;;;;48.67;29.23;;;;;;;4.05;49.94;101523.25;351190;28;1461;-72
2021/03/09 00:10:42;;;;;;;46.45;28.35;;;;;;;4.08;50.63;101518.88;352414;28;1041;-71
2021/03/09 00:10:53;;;;;;;46.13;29.40;;;;;;;4.13;50.43;101520.59;352041;28;1381;-71
2021/03/09 00:11:04;;;;;;;47.13;30.88;;;;;;;4.22;49.95;101520.53;352388;28;1084;-72
2021/03/09 00:11:15;;;;;;;47.97;31.00;;;;;;;4.29;49.61;101522.19;352255;28;1476;-71
2021/03/09 00:11:26;;;;;;;47.55;30.63;;;;;;;4.32;49.58;101510.84;350989;28;1080;-69
2021/03/09 00:11:38;;;;;;;47.05;29.77;;;;;;;4.32;49.54;101522.16;350869;28;1402;-68
2021/03/09 00:11:49;;;;;;;48.90;30.38;;;;;;;4.33;49.60;101515.22;350725;28;1382;-73
2021/03/09 00:12:00;;;;;;;50.45;30.98;;;;;;;4.34;49.41;101511.69;351014;28;1091;-74
2021/03/09 00:12:11;;;;;;;49.03;31.17;;;;;;;4.38;49.42;101516.91;351279;28;1375;-71
2021/03/09 00:12:22;;;;;;;49.47;31.63;;;;;;;4.40;50.27;101515.13;352327;28;1063;-72
2021/03/09 00:12:34;;;;;;;48.42;31.70;;;;;;;4.40;50.15;101515.13;351328;28;2041;-72
2021/03/09 00:12:45;;;;;;;48.35;31.77;;;;;;;4.45;50.09;101522.94;350846;28;1077;-70
2021/03/09 00:12:56;;;;;;;47.75;31.15;;;;;;;4.42;50.44;101515.09;352014;28;1430;-72
2021/03/09 00:13:07;;;;;;;46.55;30.83;;;;;;;4.39;49.54;101516.00;352347;28;1135;-72
2021/03/09 00:13:19;;;;;;;46.58;30.77;;;;;;;4.38;50.17;101522.13;350919;28;1093;-72
2021/03/09 00:13:30;;;;;;;45.60;30.52;;;;;;;4.35;49.52;101514.28;351186;28;2005;-72
2021/03/09 00:13:41;;;;;;;45.45;30.92;;;;;;;4.35;49.54;101523.88;352219;28;1139;-72
2021/03/09 00:13:52;;;;;;;48.28;31.77;;;;;;;4.35;49.32;101516.91;352269;28;1504;-72
2021/03/09 00:14:03;;;;;;;50.45;32.25;;;;;;;4.38;50.41;101521.25;352311;28;1133;-70
2021/03/09 00:14:14;;;;;;;52.20;31.98;;;;;;;4.40;50.57;101519.50;350012;28;1405;-72
2021/03/09 00:14:25;;;;;;;51.28;31.17;;;;;;;4.42;49.61;101517.72;349480;28;1068;-72
2021/03/09 00:14:36;;;;;;;51.88;31.27;;;;;;;4.45;50.21;101522.94;350432;28;1438;-71
2021/03/09 00:14:47;;;;;;;51.94;31.22;;;;;;;4.45;49.53;101522.94;350948;28;1216;-70
2021/03/09 00:15:14;;;;;;;50.05;31.05;;;;;;;4.43;49.64;101516.84;347846;28;71230;-70
2021/03/09 00:15:25;;;;;;;48.45;30.80;;;;;;;4.38;49.40;101518.63;350849;28;1041;-71
2021/03/09 00:15:36;;;;;;;47.30;30.88;;;;;;;4.39;49.83;101520.38;350145;28;1471;-70
2021/03/09 00:15:47;;;;;;;46.30;30.88;;;;;;;4.39;49.59;101520.38;350920;28;1168;-73
2021/03/09 00:15:59;;;;;;;45.97;31.08;;;;;;;4.41;49.77;101521.25;350968;28;1100;-71
2021/03/09 00:16:10;;;;;;;48.47;31.50;;;;;;;4.43;50.48;101514.22;351147;28;1374;-71
2021/03/09 00:16:21;;;;;;;48.15;31.92;;;;;;;4.46;50.46;101521.19;352404;28;1080;-68
2021/03/09 00:16:33;;;;;;;48.83;31.95;;;;;;;4.48;50.11;101519.41;351654;28;1408;-72
2021/03/09 00:16:44;;;;;;;47.80;31.63;;;;;;;4.48;50.17;101512.44;351028;28;1105;-69
2021/03/09 00:16:55;;;;;;;49.50;31.98;;;;;;;4.48;49.56;101516.78;351962;28;1420;-72
2021/03/09 00:17:07;;;;;;;49.13;31.58;;;;;;;4.49;50.02;101518.53;352562;28;1136;-70
2021/03/09 00:17:18;;;;;;;47.56;31.48;;;;;;;4.48;50.10;101516.78;350945;28;1360;-71
2021/03/09 00:17:29;;;;;;;48.58;31.30;;;;;;;4.39;49.46;101516.00;351063;28;1512;-71
2021/03/09 00:17:41;;;;;;;49.90;31.40;;;;;;;4.36;50.33;101518.63;352368;28;1277;-71
2021/03/09 00:17:52;;;;;;;50.17;31.80;;;;;;;4.30;49.54;101516.09;351846;28;1551;-72
2021/03/09 00:18:03;;;;;;;53.03;32.47;;;;;;;4.25;50.52;101518.72;351062;28;1383;-71
2021/03/09 00:18:15;;;;;;;52.08;30.75;;;;;;;4.13;50.64;101526.66;351679;28;1416;-71
2021/03/09 00:18:26;;;;;;;49.53;30.10;;;;;;;4.15;49.99;101522.31;352293;28;1080;-71
2021/03/09 00:18:37;;;;;;;45.78;30.50;;;;;;;4.14;49.91;101522.31;350790;28;1581;-70
2021/03/09 00:18:48;;;;;;;47.40;32.13;;;;;;;4.17;50.72;101517.06;350947;28;1238;-70
2021/03/09 00:18:59;;;;;;;48.90;32.30;;;;;;;4.22;50.71;101513.53;349538;28;1176;-70
2021/03/09 00:19:10;;;;;;;51.47;32.45;;;;;;;4.26;50.72;101514.38;349698;28;1565;-71
2021/03/09 00:19:21;;;;;;;51.05;32.22;;;;;;;4.27;50.73;101515.25;350857;28;1052;-69
2021/03/09 00:19:32;;;;;;;50.90;31.55;;;;;;;4.31;49.76;101512.56;350791;28;1323;-71
2021/03/09 00:19:44;;;;;;;51.42;31.67;;;;;;;4.31;50.69;101511.72;350944;28;1076;-71
2021/03/09 00:19:55;;;;;;;52.53;31.75;;;;;;;4.32;50.81;101516.94;350874;28;1489;-69
2021/03/09 00:20:07;;;;;;;51.50;32.40;;;;;;;4.33;50.02;101516.06;350842;28;1084;-71
2021/03/09 00:20:18;;;;;;;51.83;32.15;;;;;;;4.32;50.57;101513.47;349561;28;1077;-71
2021/03/09 00:20:30;;;;;;;51.15;32.03;;;;;;;4.32;50.03;101513.47;350976;28;1530;-71
2021/03/09 00:20:41;;;;;;;50.67;32.17;;;;;;;4.31;49.75;101509.97;352265;28;1157;-71
2021/03/09 00:20:52;;;;;;;48.15;31.52;;;;;;;4.33;50.70;101508.22;352207;28;1975;-71
2021/03/09 00:21:03;;;;;;;49.60;31.67;;;;;;;4.35;49.57;101510.81;352189;28;1161;-71
2021/03/09 00:21:14;;;;;;;49.80;31.50;;;;;;;4.37;49.86;101512.53;352225;28;1485;-70
2021/03/09 00:21:26;;;;;;;51.28;31.73;;;;;;;4.33;50.72;101510.81;352310;28;1212;-71
2021/03/09 00:21:37;;;;;;;49.30;30.83;;;;;;;4.28;50.19;101507.38;352243;28;1492;-71
2021/03/09 00:21:48;;;;;;;47.05;30.67;;;;;;;4.25;49.71;101508.25;352336;28;1259;-71
2021/03/09 00:21:59;;;;;;;47.28;30.85;;;;;;;4.24;50.28;101509.19;353399;27;1129;-66
2021/03/09 00:22:10;;;;;;;47.25;30.90;;;;;;;4.28;50.20;101514.38;351216;28;1433;-71
2021/03/09 00:22:22;;;;;;;49.45;31.50;;;;;;;4.23;49.91;101510.03;352512;28;1139;-68
2021/03/09 00:22:33;;;;;;;51.88;31.65;;;;;;;4.24;50.91;101509.19;352390;28;1528;-70
2021/03/09 00:22:44;;;;;;;50.34;31.70;;;;;;;4.19;50.10;101510.94;352430;28;1131;-71
2021/03/09 00:22:55;;;;;;;47.90;31.08;;;;;;;4.15;51.13;101514.47;351367;28;1405;-72
2021/03/09 00:23:06;;;;;;;47.17;31.40;;;;;;;4.16;49.97;101504.88;351007;28;1118;-71
2021/03/09 00:23:17;;;;;;;50.53;32.28;;;;;;;4.19;50.85;101510.94;352229;28;1366;-71
2021/03/09 00:23:28;;;;;;;53.35;32.58;;;;;;;4.18;50.06;101503.97;352363;28;1452;-71
2021/03/09 00:23:40;;;;;;;54.15;32.22;;;;;;;4.18;50.94;101513.59;350996;28;1129;-70
2021/03/09 00:23:51;;;;;;;53.17;32.05;;;;;;;4.18;51.16;101509.22;351196;28;1485;-73
2021/03/09 00:24:02;;;;;;;49.78;31.58;;;;;;;4.22;51.08;101513.53;352391;28;962;-72
2021/03/09 00:24:13;;;;;;;49.25;31.70;;;;;;;4.26;50.84;101514.38;351574;28;1998;-72
2021/03/09 00:24:24;;;;;;;48.17;31.42;;;;;;;4.31;50.36;101514.34;350980;28;2070;-71
2021/03/09 00:24:35;;;;;;;48.92;31.65;;;;;;;4.31;50.89;101509.09;351945;28;1469;-71
2021/03/09 00:24:47;;;;;;;50.30;31.40;;;;;;;4.30;50.06;101518.72;352267;28;1184;-71
2021/03/09 00:24:58;;;;;;;51.53;31.30;;;;;;;4.29;50.24;101510.88;351028;28;1401;-72
2021/03/09 00:25:11;;;;;;;53.42;31.80;;;;;;;4.29;50.91;101509.13;351138;28;1508;-71
2021/03/09 00:25:22;;;;;;;50.75;32.42;;;;;;;4.32;51.36;101510.84;352335;28;1208;-71
2021/03/09 00:25:33;;;;;;;50.78;32.67;;;;;;;4.32;50.14;101511.69;351626;28;1424;-72
2021/03/09 00:25:44;;;;;;;51.85;32.10;;;;;;;4.29;50.54;101514.34;350846;28;1216;-68
2021/03/09 00:25:56;;;;;;;52.53;32.00;;;;;;;4.27;49.90;101510.88;351677;28;1505;-71
2021/03/09 00:26:07;;;;;;;50.58;32.22;;;;;;;4.30;50.91;101512.59;352363;28;1080;-72
2021/03/09 00:26:18;;;;;;;48.10;32.12;;;;;;;4.26;50.11;101506.53;352178;28;1394;-69
2021/03/09 00:26:29;;;;;;;49.15;32.28;;;;;;;4.27;49.78;101512.63;352146;28;1441;-71
2021/03/09 00:26:40;;;;;;;50.42;32.28;;;;;;;4.28;50.41;101514.38;350863;28;1166;-71
2021/03/09 00:26:51;;;;;;;51.08;32.80;;;;;;;4.28;50.78;101507.38;351180;28;1552;-72
2021/03/09 00:27:03;;;;;;;51.58;32.30;;;;;;;4.28;50.17;101514.38;352355;28;1147;-72
2021/03/09 00:27:14;;;;;;;51.38;31.63;;;;;;;4.30;50.65;101515.22;351484;28;1491;-72
2021/03/09 00:27:25;;;;;;;49.42;31.20;;;;;;;4.30;50.15;101515.22;350918;28;1125;-71
2021/03/09 00:27:36;;;;;;;49.05;31.27;;;;;;;4.28;50.78;101514.38;351911;28;1421;-70
2021/03/09 00:27:47;;;;;;;50.88;31.80;;;;;;;4.29;49.67;101510.88;352239;28;1152;-72
2021/03/09 00:27:58;;;;;;;53.28;32.38;;;;;;;4.32;51.01;101516.06;350987;28;1386;-72
2021/03/09 00:28:09;;;;;;;52.55;32.58;;;;;;;4.31;51.09;101511.72;350974;28;1448;-71
2021/03/09 00:28:20;;;;;;;54.22;32.50;;;;;;;4.31;50.75;101511.72;350987;28;1122;-71
2021/03/09 00:28:32;;;;;;;53.03;31.77;;;;;;;4.29;50.75;101514.34;350735;28;1508;-72
2021/03/09 00:28:43;;;;;;;50.97;31.60;;;;;;;4.28;50.97;101519.59;352198;28;2032;-71
2021/03/09 00:28:54;;;;;;;49.00;32.13;;;;;;;4.15;51.10;101517.09;351214;28;1727;-72
2021/03/09 00:29:05;;;;;;;50.17;32.13;;;;;;;4.14;50.47;101519.72;350877;28;1115;-71
2021/03/09 00:29:16;;;;;;;49.05;31.90;;;;;;;4.13;50.89;101515.34;350791;28;1414;-71
2021/03/09 00:29:27;;;;;;;47.13;31.85;;;;;;;4.16;50.19;101515.31;350802;28;1133;-72
2021/03/09 00:29:39;;;;;;;47.75;31.88;;;;;;;4.15;50.56;101514.47;350879;28;1110;-72
2021/03/09 00:29:51;;;;;;;49.17;32.17;;;;;;;4.11;50.68;101517.09;351121;28;1379;-71
2021/03/09 00:30:03;;;;;;;50.70;32.45;;;;;;;4.08;50.63;101518.03;352316;28;1264;-71
2021/03/09 00:30:14;;;;;;;50.75;32.83;;;;;;;4.07;50.40;101511.03;351437;28;1413;-71
2021/03/09 00:30:25;;;;;;;49.78;32.78;;;;;;;4.03;50.43;101519.78;350826;28;1181;-72
2021/03/09 00:30:37;;;;;;;49.58;32.67;;;;;;;4.06;51.43;101514.53;352076;28;1528;-72
2021/03/09 00:30:48;;;;;;;50.94;32.18;;;;;;;4.06;51.42;101506.69;352384;28;1181;-71
2021/03/09 00:30:59;;;;;;;52.20;32.38;;;;;;;4.10;50.47;101521.47;351071;28;1081;-72
2021/03/09 00:31:10;;;;;;;52.13;31.92;;;;;;;4.08;51.10;101512.78;350988;28;1488;-71
2021/03/09 00:31:22;;;;;;;51.17;32.30;;;;;;;4.10;50.36;101515.38;350993;28;1076;-72
2021/03/09 00:31:33;;;;;;;49.60;32.33;;;;;;;4.09;51.18;101514.50;350882;28;1547;-72
2021/03/09 00:31:46;;;;;;;51.08;32.55;;;;;;;4.13;51.36;101515.34;351035;28;1092;-71
2021/03/09 00:31:57;;;;;;;50.20;31.98;;;;;;;4.10;50.95;101504.94;352180;28;1429;-72
2021/03/09 00:32:09;;;;;;;47.85;31.27;;;;;;;4.13;51.26;101516.22;352473;28;1167;-67
2021/03/09 00:32:20;;;;;;;48.85;31.65;;;;;;;4.15;51.07;101510.97;350843;28;1076;-72
2021/03/09 00:32:32;;;;;;;50.22;31.70;;;;;;;4.17;51.15;101515.31;351390;28;1434;-73
2021/03/09 00:32:43;;;;;;;50.67;31.70;;;;;;;4.21;50.04;101516.16;352408;28;1090;-72
2021/03/09 00:32:55;;;;;;;49.75;31.38;;;;;;;4.17;51.08;101517.06;351449;28;1432;-71
2021/03/09 00:33:06;;;;;;;49.25;31.42;;;;;;;4.16;50.14;101510.09;351065;28;1080;-68
2021/03/09 00:33:17;;;;;;;50.80;31.73;;;;;;;4.12;50.45;101513.63;352028;28;1441;-72
2021/03/09 00:33:28;;;;;;;51.35;31.48;;;;;;;4.09;51.01;101514.50;352319;28;1796;-72
2021/03/09 00:33:39;;;;;;;52.36;31.92;;;;;;;4.03;50.89;101509.34;350933;28;1034;-71
2021/03/09 00:33:50;;;;;;;50.83;32.08;;;;;;;4.00;51.20;101514.59;351046;28;1453;-72
2021/03/09 00:34:01;;;;;;;47.90;31.73;;;;;;;4.01;50.75;101519.81;352316;28;1076;-71
2021/03/09 00:34:12;;;;;;;48.10;31.75;;;;;;;4.06;51.65;101517.16;351622;28;1507;-71
2021/03/09 00:34:24;;;;;;;47.97;31.60;;;;;;;4.08;51.55;101518.03;350885;28;1183;-71
2021/03/09 00:34:36;;;;;;;49.83;31.90;;;;;;;4.08;50.49;101510.19;351741;28;1488;-71
2021/03/09 00:34:47;;;;;;;50.65;31.92;;;;;;;4.09;51.60;101514.50;352305;28;1212;-72
2021/03/09 00:34:58;;;;;;;50.72;32.50;;;;;;;4.13;50.50;101513.59;350871;28;1420;-70
2021/03/09 00:35:10;;;;;;;51.10;32.65;;;;;;;4.13;50.81;101516.22;350778;28;1434;-70
2021/03/09 00:35:21;;;;;;;51.40;32.53;;;;;;;4.14;51.66;101512.72;352214;28;1084;-70
2021/03/09 00:35:32;;;;;;;52.40;32.17;;;;;;;4.15;51.57;101510.97;350942;28;1461;-72
2021/03/09 00:35:43;;;;;;;53.38;31.98;;;;;;;4.15;50.36;101516.19;350909;28;2044;-72
2021/03/09 00:35:54;;;;;;;50.58;31.73;;;;;;;4.14;51.34;101517.09;351625;28;1434;-71
2021/03/09 00:36:06;;;;;;;50.40;32.15;;;;;;;4.13;51.07;101525.81;352182;28;1056;-72
2021/03/09 00:36:17;;;;;;;50.90;32.55;;;;;;;4.14;51.20;101523.19;351012;28;1512;-72
2021/03/09 00:36:28;;;;;;;51.15;32.60;;;;;;;4.14;51.18;101517.09;350870;28;1196;-72
2021/03/09 00:36:39;;;;;;;50.78;32.33;;;;;;;4.14;50.61;101512.72;350880;28;1869;-72
2021/03/09 00:36:50;;;;;;;50.28;32.10;;;;;;;4.11;50.28;101512.75;349670;28;1548;-71
2021/03/09 00:37:03;;;;;;;49.75;31.98;;;;;;;4.10;51.40;101521.47;350670;28;1176;-69
2021/03/09 00:37:14;;;;;;;47.90;31.90;;;;;;;4.14;50.98;101519.72;350896;28;1473;-72
2021/03/09 00:37:25;;;;;;;46.70;31.50;;;;;;;4.13;51.00;101512.75;350882;28;1205;-72
2021/03/09 00:37:36;;;;;;;47.72;31.45;;;;;;;4.13;51.23;101516.22;348634;28;1473;-71
2021/03/09 00:37:47;;;;;;;49.38;31.42;;;;;;;4.12;50.96;101518.84;349526;28;1078;-71
2021/03/09 00:37:58;;;;;;;49.35;31.20;;;;;;;4.13;50.81;101524.06;350622;28;1350;-71
2021/03/09 00:38:09;;;;;;;48.67;31.50;;;;;;;4.13;50.90;101520.59;350858;28;1382;-69
2021/03/09 00:38:20;;;;;;;47.60;31.58;;;;;;;4.10;50.86;101513.63;350776;28;1131;-72
2021/03/09 00:38:31;;;;;;;48.25;32.17;;;;;;;4.13;50.52;101516.22;350466;28;1532;-69
2021/03/09 00:38:43;;;;;;;48.58;31.63;;;;;;;4.11;51.07;101520.59;349588;28;1061;-72
2021/03/09 00:38:54;;;;;;;48.80;31.42;;;;;;;4.13;51.05;101518.81;351412;28;1390;-67
2021/03/09 00:39:05;;;;;;;49.08;31.05;;;;;;;4.12;51.36;101511.88;352348;28;1317;-72
2021/03/09 00:39:16;;;;;;;48.55;31.48;;;;;;;4.15;50.43;101518.81;351196;28;1445;-69
2021/03/09 00:39:27;;;;;;;50.15;32.08;;;;;;;4.16;50.98;101520.56;350805;28;1712;-72
2021/03/09 00:39:39;;;;;;;50.85;32.47;;;;;;;4.17;51.18;101523.16;351070;28;1143;-72
2021/03/09 00:39:50;;;;;;;53.15;32.30;;;;;;;4.18;50.49;101519.66;351047;28;1488;-71
2021/03/09 00:40:02;;;;;;;51.90;31.85;;;;;;;4.21;50.78;101519.63;352444;28;1085;-72
2021/03/09 00:40:14;;;;;;;50.78;31.65;;;;;;;4.17;50.43;101528.38;351671;28;1382;-71
2021/03/09 00:40:25;;;;;;;51.45;31.98;;;;;;;4.15;50.54;101514.47;350933;28;1044;-70
2021/03/09 00:40:36;;;;;;;52.35;32.15;;;;;;;4.17;51.51;101522.28;351947;28;1421;-71
2021/03/09 00:40:47;;;;;;;51.30;32.22;;;;;;;4.18;51.24;101517.06;352252;28;1032;-71
2021/03/09 00:40:58;;;;;;;50.44;31.36;;;;;;;4.14;50.43;101517.94;352159;28;1401;-70
2021/03/09 00:41:09;;;;;;;51.15;31.55;;;;;;;4.10;50.96;101524.09;352107;28;1420;-71
2021/03/09 00:41:20;;;;;;;51.45;31.73;;;;;;;4.01;51.20;101526.75;350820;28;1969;-71
2021/03/09 00:41:31;;;;;;;52.30;32.15;;;;;;;3.96;51.27;101526.81;351266;28;1453;-71
2021/03/09 00:41:42;;;;;;;51.20;32.05;;;;;;;3.99;51.37;101528.53;352223;28;1131;-72
2021/03/09 00:41:54;;;;;;;54.30;32.13;;;;;;;4.04;51.05;101524.16;351604;28;1480;-70
2021/03/09 00:42:05;;;;;;;53.03;32.13;;;;;;;4.08;51.72;101528.47;350894;28;1065;-73
2021/03/09 00:42:16;;;;;;;52.90;31.95;;;;;;;4.08;51.28;101528.47;351802;28;2104;-70
2021/03/09 00:42:27;;;;;;;50.75;32.30;;;;;;;4.08;50.68;101518.03;352234;28;1134;-72
2021/03/09 00:42:39;;;;;;;50.30;32.35;;;;;;;4.10;51.54;101526.69;350772;28;1366;-73
2021/03/09 00:42:50;;;;;;;50.00;32.33;;;;;;;4.11;51.17;101523.22;350919;28;1492;-72
2021/03/09 00:43:01;;;;;;;48.72;31.67;;;;;;;4.08;51.55;101524.09;350968;28;1133;-72
2021/03/09 00:43:12;;;;;;;49.75;31.90;;;;;;;4.10;51.56;101520.63;351669;28;1234;-72
2021/03/09 00:43:23;;;;;;;49.10;31.90;;;;;;;4.12;50.87;101524.97;351005;28;1125;-71
2021/03/09 00:43:34;;;;;;;51.72;32.17;;;;;;;4.12;51.46;101524.06;351513;28;1326;-71
2021/03/09 00:43:45;;;;;;;51.58;32.33;;;;;;;4.11;50.71;101527.56;352442;28;1155;-72
2021/03/09 00:43:56;;;;;;;53.15;32.38;;;;;;;4.08;51.53;101523.25;351292;28;2165;-72
2021/03/09 00:44:07;;;;;;;51.50;32.08;;;;;;;4.03;51.56;101530.25;350970;28;1178;-72
2021/03/09 00:44:19;;;;;;;51.85;32.28;;;;;;;4.04;50.81;101534.59;352262;28;1353;-71
2021/03/09 00:44:30;;;;;;;52.28;32.80;;;;;;;4.04;50.75;101532.00;352031;28;1444;-71
2021/03/09 00:44:41;;;;;;;51.80;32.97;;;;;;;4.03;51.47;101525.88;350926;28;1220;-72
2021/03/09 00:44:52;;;;;;;50.70;32.92;;;;;;;4.03;51.66;101530.25;351397;28;1528;-71
2021/03/09 00:45:04;;;;;;;49.75;32.45;;;;;;;4.04;51.01;101534.59;352410;28;1113;-71
2021/03/09 00:45:35;;;;;;;51.22;32.17;;;;;;;4.01;51.58;101527.66;349441;28;69226;-72
2021/03/09 00:45:47;;;;;;;50.63;32.38;;;;;;;3.97;51.21;101533.78;352485;28;1083;-72
2021/03/09 00:45:58;;;;;;;51.03;32.30;;;;;;;3.99;50.62;101528.53;351018;28;1345;-70
2021/03/09 00:46:09;;;;;;;48.90;32.10;;;;;;;4.01;50.94;101529.38;351018;28;1599;-70
2021/03/09 00:46:21;;;;;;;49.55;32.10;;;;;;;4.01;51.37;101532.00;352195;28;1113;-72
2021/03/09 00:46:32;;;;;;;49.97;31.98;;;;;;;4.03;50.87;101530.25;351938;28;1620;-71
2021/03/09 00:46:43;;;;;;;52.13;32.38;;;;;;;4.05;51.75;101523.25;351058;28;1080;-71
2021/03/09 00:46:55;;;;;;;52.05;32.78;;;;;;;4.06;51.56;101532.84;351789;28;1440;-71
2021/03/09 00:47:06;;;;;;;50.97;32.60;;;;;;;4.05;51.67;101528.47;352395;28;1174;-71
2021/03/09 00:47:18;;;;;;;49.05;32.13;;;;;;;4.03;51.75;101528.50;351001;28;1326;-73
2021/03/09 00:47:29;;;;;;;50.13;31.80;;;;;;;4.03;51.33;101533.72;350862;28;1406;-73
2021/03/09 00:47:40;;;;;;;49.95;31.80;;;;;;;4.05;51.45;101531.97;352262;28;1121;-74
2021/03/09 00:47:52;;;;;;;51.33;32.70;;;;;;;4.07;51.63;101531.97;351920;28;1503;-73
2021/03/09 00:48:03;;;;;;;50.97;32.83;;;;;;;4.10;51.53;101526.69;350853;28;1146;-73
2021/03/09 00:48:14;;;;;;;51.70;32.53;;;;;;;4.07;50.77;101526.72;351434;28;1771;-73
2021/03/09 00:48:25;;;;;;;53.70;32.47;;;;;;;4.04;51.56;101534.59;352233;28;1088;-73
2021/03/09 00:48:40;;;;;;;53.47;32.45;;;;;;;4.01;51.24;101529.38;351073;28;1390;-74
2021/03/09 00:48:51;;;;;;;49.55;31.95;;;;;;;4.03;51.55;101525.03;349590;28;47904;-73
2021/03/09 00:49:03;;;;;;;49.05;31.90;;;;;;;4.04;51.06;101527.63;350870;28;1060;-73
2021/03/09 00:49:14;;;;;;;51.65;32.40;;;;;;;4.00;51.01;101532.91;350036;28;1369;-74
2021/03/09 00:49:25;;;;;;;50.30;31.48;;;;;;;3.92;51.33;101526.84;350207;28;1177;-70
2021/03/09 00:49:36;;;;;;;49.28;30.95;;;;;;;3.91;51.47;101536.41;351906;28;1444;-73
2021/03/09 00:49:48;;;;;;;50.72;31.98;;;;;;;3.90;51.21;101532.06;352184;27;1141;-71
2021/03/09 00:49:59;;;;;;;50.63;32.15;;;;;;;3.89;51.93;101532.97;350813;28;1220;-72
2021/03/09 00:50:11;;;;;;;50.30;32.05;;;;;;;3.89;51.70;101533.81;351017;28;1426;-72
2021/03/09 00:50:22;;;;;;;50.17;31.52;;;;;;;3.93;51.20;101531.19;352246;28;1167;-74
2021/03/09 00:50:33;;;;;;;51.55;31.73;;;;;;;3.95;50.96;101529.44;352200;28;1440;-74
2021/03/09 00:50:44;;;;;;;54.00;32.72;;;;;;;3.97;51.85;101525.06;352313;28;1153;-73
2021/03/09 00:50:55;;;;;;;52.20;32.15;;;;;;;3.95;51.04;101525.06;351903;28;1428;-74
2021/03/09 00:51:07;;;;;;;50.95;32.28;;;;;;;3.95;51.24;101525.06;351032;28;1123;-73
2021/03/09 00:51:19;;;;;;;49.83;32.05;;;;;;;3.89;51.45;101533.81;350931;28;2104;-73
2021/03/09 00:51:30;;;;;;;51.03;32.35;;;;;;;3.78;51.85;101529.53;350916;28;2114;-72
2021/03/09 00:51:41;;;;;;;49.88;31.75;;;;;;;3.70;52.22;101526.97;351027;28;1133;-73
2021/03/09 00:51:52;;;;;;;50.03;31.73;;;;;;;3.61;52.01;101527.88;350895;28;1426;-74
2021/03/09 00:52:04;;;;;;;50.55;31.92;;;;;;;3.62;52.52;101524.41;350806;28;1069;-73
2021/03/09 00:52:15;;;;;;;52.28;32.45;;;;;;;3.64;51.84;101532.22;351743;28;1457;-74
2021/03/09 00:52:26;;;;;;;52.00;32.63;;;;;;;3.69;52.47;101528.72;350842;28;1084;-72
2021/03/09 00:52:37;;;;;;;50.22;32.17;;;;;;;3.72;51.33;101519.97;349584;28;1465;-73
2021/03/09 00:52:48;;;;;;;50.50;31.88;;;;;;;3.77;51.78;101533.91;349442;28;1152;-73
2021/03/09 00:52:59;;;;;;;50.40;31.90;;;;;;;3.79;51.51;101526.94;349445;28;1061;-75
2021/03/09 00:53:10;;;;;;;49.88;32.22;;;;;;;3.81;51.72;101522.53;349374;28;1522;-73
2021/03/09 00:53:22;;;;;;;50.00;32.45;;;;;;;3.87;52.51;101526.88;349466;28;1077;-72
2021/03/09 00:53:33;;;;;;;51.80;33.17;;;;;;;3.79;52.13;101526.03;348924;28;1470;-73
2021/03/09 00:53:44;;;;;;;51.42;33.38;;;;;;;3.73;52.19;101527.81;348044;28;1080;-75